Cerro Blanco, Chile
Current Conditions -  °F | °C
As of 10:00 AM on Monday 20 Oct 2014 (Local Time) from SCSE Reporting Station
Few Clouds Few Clouds  
Wind Chill: 59°   Ceiling: Unl
Heat Index: 59°   Visibility: 6mi
Dew Point: 52°   Wind: 8mph
Humidity: 77%   Direction: 280°W
Pressure: 29.94"   Gusts: NA
Location:  30.07°S, 71.12°W
Report Text: SCSE 201300Z 28007KT 9999 FEW010 15/11 Q1014
Loading
Personal Weather Stations






























Interactive Weather Map
Tropical Storm Tracking
New forecast layout! Learn more

10-Day Weather Forecast

Advertisements
Track Severe Weather on mobile